createdAt,value
2023-03-15T00:01:51.390Z,0
2023-03-15T00:07:16.738Z,0
2023-03-15T00:12:39.157Z,0
2023-03-15T00:18:05.507Z,0
2023-03-15T00:23:28.014Z,0
2023-03-15T00:28:54.026Z,0
2023-03-15T00:34:16.573Z,0
2023-03-15T00:39:48.465Z,0
2023-03-15T00:45:32.790Z,0
2023-03-15T00:50:55.251Z,0
2023-03-15T00:56:17.925Z,0
2023-03-15T01:01:43.057Z,0
2023-03-15T01:12:47.499Z,0
2023-03-15T01:18:10.056Z,0
2023-03-15T01:23:32.573Z,0
2023-03-15T01:29:03.275Z,0
2023-03-15T01:34:25.900Z,0
2023-03-15T01:39:51.659Z,0
2023-03-15T01:45:14.761Z,0
2023-03-15T01:50:37.373Z,0
2023-03-15T01:56:03.274Z,0
2023-03-15T02:01:37.267Z,0
2023-03-15T02:06:59.742Z,0
2023-03-15T02:12:22.514Z,0
2023-03-15T02:17:45.338Z,0
2023-03-15T02:23:11.439Z,0
2023-03-15T02:28:34.108Z,0
2023-03-15T02:33:56.719Z,0
2023-03-15T02:39:41.388Z,0
2023-03-15T02:45:07.129Z,0
2023-03-15T02:50:29.734Z,0
2023-03-15T02:55:52.081Z,0
2023-03-15T03:01:23.595Z,0
2023-03-15T15:19:11.188Z,1.2
2023-03-15T15:24:33.383Z,1.1
2023-03-15T15:29:58.108Z,1
2023-03-15T15:35:27.892Z,0.9
2023-03-15T15:40:50.388Z,0.9
2023-03-15T15:46:12.662Z,0.9
2023-03-15T15:51:37.858Z,0.8
2023-03-15T15:57:00.155Z,0.7
2023-03-15T16:02:34.020Z,0.6
2023-03-15T16:07:56.381Z,0.6
2023-03-15T16:13:18.977Z,0.6
2023-03-15T16:18:41.450Z,0.6
2023-03-15T16:24:06.287Z,0.5
2023-03-15T16:29:28.603Z,0.5
2023-03-15T16:34:51.178Z,0.4
2023-03-15T16:40:13.565Z,0.4
2023-03-15T16:45:47.878Z,0.4
2023-03-15T16:51:10.199Z,0.3
2023-03-15T16:56:32.650Z,0.2
2023-03-15T17:02:03.344Z,0.1
2023-03-15T17:07:26.147Z,0.1
2023-03-15T17:13:00.030Z,0.1
2023-03-15T17:18:22.552Z,0.1
2023-03-15T17:23:44.764Z,0.1
2023-03-15T17:29:07.262Z,0
2023-03-15T17:34:33.002Z,0
2023-03-15T17:39:55.741Z,0
2023-03-15T17:45:25.405Z,0
2023-03-15T17:50:47.741Z,0
2023-03-15T17:56:16.332Z,0
2023-03-15T18:01:46.244Z,0
2023-03-15T18:07:58.134Z,0
2023-03-15T18:13:26.992Z,0
2023-03-15T18:18:49.345Z,0
2023-03-15T18:24:19.206Z,0
2023-03-15T18:29:43.384Z,0
2023-03-15T18:35:09.064Z,0
2023-03-15T18:40:37.521Z,0
2023-03-15T18:46:00.078Z,0
2023-03-15T18:51:25.450Z,0
2023-03-15T18:56:50.105Z,0
2023-03-15T19:02:12.536Z,0
2023-03-15T19:07:35.848Z,0
2023-03-15T19:13:24.535Z,0
2023-03-15T19:18:47.213Z,0
2023-03-15T19:24:09.939Z,0
2023-03-15T19:29:34.562Z,0
2023-03-15T19:34:56.870Z,0
2023-03-15T19:40:19.433Z,0
2023-03-15T19:45:49.511Z,0
2023-03-15T19:51:12.852Z,0
2023-03-15T19:56:35.565Z,0
2023-03-15T20:01:58.299Z,0
2023-03-15T20:07:34.716Z,0
2023-03-15T20:12:57.366Z,0
2023-03-15T20:18:20.080Z,0
2023-03-15T20:23:50.018Z,0
2023-03-15T20:29:12.519Z,0
2023-03-15T20:34:35.082Z,0
2023-03-15T20:39:57.713Z,0
2023-03-15T20:45:20.694Z,0
2023-03-15T20:50:46.373Z,0
2023-03-15T20:56:09.070Z,0
2023-03-15T21:01:32.644Z,0
2023-03-15T21:06:55.143Z,0
2023-03-15T21:12:28.344Z,0
2023-03-15T21:17:51.493Z,0
2023-03-15T21:23:18.455Z,0
2023-03-15T21:28:42.787Z,0
2023-03-15T21:34:04.977Z,0
2023-03-15T21:39:27.710Z,0
2023-03-15T21:44:57.313Z,0
2023-03-15T21:50:19.798Z,0
2023-03-15T21:55:42.254Z,0
2023-03-15T22:01:28.720Z,0
2023-03-15T22:06:56.591Z,0
2023-03-15T22:12:19.185Z,0
2023-03-15T22:17:41.983Z,0
2023-03-15T22:23:04.589Z,0
2023-03-15T22:28:27.266Z,0
2023-03-15T22:33:51.877Z,0
2023-03-15T22:39:14.529Z,0
2023-03-15T22:44:40.316Z,0
2023-03-15T22:50:03.960Z,0
2023-03-15T22:55:26.627Z,0
2023-03-15T23:00:49.277Z,0
2023-03-15T23:06:20.383Z,0
2023-03-15T23:11:43.286Z,0
2023-03-15T23:17:05.974Z,0
2023-03-15T23:22:28.447Z,0
2023-03-15T23:27:50.904Z,0
2023-03-15T23:33:13.497Z,0
2023-03-15T23:38:38.280Z,0
2023-03-15T23:44:00.948Z,0
2023-03-15T23:49:28.883Z,0
2023-03-15T23:54:51.823Z,0
